Pagrindinis puslapis
METAR-TAF:

METAR-TAF

Oro uostai :

Mekoryuk, Aliaska, Jungtinės Amerikos Valstijos

platuma: 60-22N, ilguma: 166-16W, Aukštis: 15 m

Dabartinis oras

Ataskaita buvo paskelbta 10 minutes, ne 19:56 UTC
Vėjas 11 kt iš Pietų/Pietryčių
Temperatūra -7°C
Drėgmė 100%
Slėgis 1002 hPa
Matomumas: 0.8 km
Apsiniaukę ne aukštis 100 ft
įšaldymas rūko

METAR: PAMY 161956Z AUTO 16011KT 1/2SM FZFG OVC001 M07/M07 A2958 RMK AO2 UPB16E26B47E55SNB05E16B37E47 SLP018 P0000 T10671072 FZRANO

Laikas: 11:06 (20:06 UTC)


TAF: trūkstamas

Orai ataskaitas ir orų prognozės (METAR, TAF).

turimą stotys yra geltonos ir raudonos taškus žemėlapyje.

Perkelti pele per norėdami pamatyti stoties vardą.

Tada spustelėkite, norėdami matyti oro stebėjimo ir prognozės.

Norėdami pakeisti žemėlapį: spustelėkite ant žalios mygtukų su juodo kryžiaus žemyn,; žalią mygtuką su brūkšneliu, jei norite nutolinti; arba žalių rodyklių gretimoms žemėlapius.


METAR-TAF: